Time;durP1;ratioP1;P1;durP2;ratioP2;P2;SDS_P1;SDS_P2;PMS_P1;PMS_P2;Temp;Humidity;BMP_temperature;BMP_pressure;BME280_temperature;BME280_humidity;BME280_pressure;Samples;Min_cycle;Max_cycle;Signal;HPM_P1;HPM_P2
2023/12/21 00:16:01;;;;;;;2.30;1.40;;;7.50;99.90;;;;;;5037746;28;20053;-88
2023/12/21 00:18:58;;;;;;;2.42;1.40;;;7.50;99.90;;;;;;5021721;28;20029;-85
2023/12/21 00:25:55;;;;;;;2.35;1.23;;;7.50;99.90;;;;;;4961085;28;20070;-84
2023/12/21 00:36:40;;;;;;;2.80;1.38;;;7.60;99.90;;;;;;4941413;29;20035;-85
2023/12/21 00:50:08;;;;;;;3.08;1.48;;;7.60;99.90;;;;;;4943867;29;20050;-82
2023/12/21 00:53:03;;;;;;;1.92;1.23;;;7.60;99.90;;;;;;4941636;29;20032;-85
2023/12/21 01:00:00;;;;;;;4.10;1.42;;;7.60;99.90;;;;;;4926060;29;20594;-85
2023/12/21 01:05:46;;;;;;;2.30;1.27;;;7.60;99.90;;;;;;4913294;29;20052;-86
2023/12/21 01:08:52;;;;;;;2.47;1.08;;;7.60;99.90;;;;;;4945075;28;20031;-87
2023/12/21 01:11:48;;;;;;;2.65;1.00;;;7.60;99.90;;;;;;4960378;28;20086;-87
2023/12/21 01:15:05;;;;;;;1.42;1.02;;;7.60;99.90;;;;;;5006916;28;20036;-90
2023/12/21 01:18:09;;;;;;;1.10;1.00;;;7.60;99.90;;;;;;4941879;29;20512;-89
2023/12/21 01:23:47;;;;;;;3.10;1.23;;;;;;;;;;5017744;28;20064;-87
2023/12/21 01:29:28;;;;;;;2.30;1.00;;;7.90;99.90;;;;;;4935045;29;20090;-86
2023/12/21 01:32:26;;;;;;;1.75;1.20;;;7.90;99.90;;;;;;4925552;29;20090;-86
2023/12/21 01:35:26;;;;;;;2.28;1.20;;;7.80;99.90;;;;;;4918669;29;20092;-85
2023/12/21 01:37:52;;;;;;;1.95;0.90;;;7.80;99.90;;;;;;4921980;29;20232;-86
2023/12/21 01:40:18;;;;;;;2.00;1.20;;;8.30;99.90;;;;;;4988482;28;20040;-85
2023/12/21 01:42:44;;;;;;;1.15;0.80;;;;;;;;;;5024050;28;20033;-84
2023/12/21 01:45:10;;;;;;;1.40;0.90;;;7.90;99.90;;;;;;5046230;28;20034;-84
2023/12/21 01:47:36;;;;;;;3.05;1.00;;;7.90;99.90;;;;;;5042388;28;20028;-86
2023/12/21 01:50:02;;;;;;;1.38;1.05;;;6.10;99.90;;;;;;5038014;28;20080;-86
2023/12/21 01:52:28;;;;;;;3.42;1.10;;;7.90;99.90;;;;;;5043481;28;20025;-82
2023/12/21 01:54:55;;;;;;;1.30;0.90;;;7.90;99.90;;;;;;5054411;28;20034;-88
2023/12/21 01:57:21;;;;;;;2.80;1.08;;;9.30;99.90;;;;;;5054032;28;20017;-86
2023/12/21 01:59:47;;;;;;;1.17;0.70;;;7.90;99.90;;;;;;5037658;28;20104;-83
2023/12/21 02:02:13;;;;;;;1.75;0.90;;;7.90;99.90;;;;;;5022985;28;20045;-85
2023/12/21 02:04:38;;;;;;;1.95;0.88;;;7.90;99.90;;;;;;5038397;28;20068;-85
2023/12/21 02:07:04;;;;;;;2.10;1.10;;;8.00;99.90;;;;;;5038785;28;20029;-86
2023/12/21 02:09:30;;;;;;;3.22;0.80;;;7.90;99.90;;;;;;5054693;28;20025;-83
2023/12/21 02:11:56;;;;;;;1.25;0.80;;;7.90;99.90;;;;;;5032252;28;20033;-86
2023/12/21 02:14:21;;;;;;;1.20;0.90;;;6.80;99.90;;;;;;5042164;28;20102;-86
2023/12/21 02:16:57;;;;;;;1.65;0.80;;;8.30;99.90;;;;;;5041448;28;20032;-86
2023/12/21 02:19:27;;;;;;;1.48;0.90;;;7.80;99.90;;;;;;5038952;28;20034;-85
2023/12/21 02:21:58;;;;;;;1.10;0.70;;;7.90;99.90;;;;;;5039530;28;20071;-88
2023/12/21 02:24:24;;;;;;;0.70;0.50;;;8.60;99.90;;;;;;5057833;28;20044;-88
2023/12/21 02:26:49;;;;;;;1.40;0.70;;;11.20;99.90;;;;;;5060633;28;20030;-86
2023/12/21 02:29:15;;;;;;;1.30;0.73;;;8.00;99.90;;;;;;5039567;28;20037;-82
2023/12/21 02:31:40;;;;;;;2.17;0.73;;;10.30;99.90;;;;;;5040893;28;20449;-84
2023/12/21 02:34:07;;;;;;;0.90;0.63;;;;;;;;;;5036998;28;20026;-84
2023/12/21 02:36:33;;;;;;;1.30;0.50;;;7.90;99.90;;;;;;5040857;28;20033;-85
2023/12/21 02:38:59;;;;;;;0.85;0.60;;;8.60;99.90;;;;;;5046415;28;20029;-84
2023/12/21 02:41:33;;;;;;;0.63;0.50;;;8.70;99.90;;;;;;5041804;28;20033;-86
2023/12/21 02:43:59;;;;;;;1.48;0.60;;;11.10;99.90;;;;;;5041577;28;20014;-82
2023/12/21 02:46:26;;;;;;;0.88;0.88;;;7.90;99.90;;;;;;5042459;28;20029;-87
2023/12/21 02:48:52;;;;;;;0.80;0.60;;;8.00;99.90;;;;;;5038096;28;20119;-86
2023/12/21 02:51:18;;;;;;;0.90;0.60;;;6.80;99.90;;;;;;5041908;28;20047;-88
2023/12/21 02:53:44;;;;;;;1.30;0.60;;;7.90;99.90;;;;;;5043347;28;20112;-87
2023/12/21 02:56:12;;;;;;;0.50;0.50;;;11.00;99.90;;;;;;5039609;28;20018;-86
2023/12/21 02:58:39;;;;;;;0.93;0.60;;;7.90;99.90;;;;;;5041857;28;20099;-83
2023/12/21 03:01:05;;;;;;;0.63;0.45;;;7.90;99.90;;;;;;5042327;28;20533;-86
2023/12/21 03:03:34;;;;;;;1.58;0.60;;;9.50;99.90;;;;;;5040040;28;20045;-89
2023/12/21 03:05:59;;;;;;;0.82;0.50;;;7.90;99.90;;;;;;5039812;28;20094;-84
2023/12/21 03:08:25;;;;;;;1.10;0.50;;;7.80;99.90;;;;;;5044020;28;20067;-85
2023/12/21 03:10:51;;;;;;;1.10;0.60;;;9.50;99.90;;;;;;5035155;28;20040;-85
2023/12/21 03:13:16;;;;;;;1.42;0.60;;;9.50;99.90;;;;;;5038992;28;20025;-88
2023/12/21 03:15:42;;;;;;;1.77;0.50;;;7.90;99.90;;;;;;5040763;28;20635;-84
2023/12/21 03:18:08;;;;;;;0.30;0.30;;;7.90;99.90;;;;;;5042594;28;20044;-84
2023/12/21 03:20:34;;;;;;;1.63;0.52;;;10.00;99.90;;;;;;5058036;28;20067;-86
2023/12/21 03:23:01;;;;;;;1.00;0.45;;;7.90;99.90;;;;;;5057568;28;20041;-85
2023/12/21 03:25:26;;;;;;;0.38;0.38;;;8.30;99.90;;;;;;5074132;28;20006;-86
2023/12/21 03:27:52;;;;;;;0.52;0.40;;;8.00;99.90;;;;;;5056336;28;20565;-88
2023/12/21 03:30:18;;;;;;;1.38;0.75;;;8.20;99.90;;;;;;5044177;28;20081;-87
2023/12/21 03:32:44;;;;;;;0.30;0.30;;;;;;;;;;5039852;28;20030;-88
2023/12/21 03:35:10;;;;;;;1.27;0.45;;;;;;;;;;5025082;28;20030;-87
2023/12/21 03:37:37;;;;;;;0.80;0.40;;;8.00;99.90;;;;;;5024492;28;20028;-86
2023/12/21 03:40:05;;;;;;;1.45;0.65;;;8.10;99.90;;;;;;5018681;28;20014;-87
2023/12/21 03:42:31;;;;;;;1.00;0.22;;;8.10;99.90;;;;;;5045792;28;20105;-87
2023/12/21 03:44:57;;;;;;;0.40;0.38;;;8.00;99.90;;;;;;5019981;28;20026;-85
2023/12/21 03:47:22;;;;;;;0.70;0.50;;;8.50;99.90;;;;;;5021448;28;20028;-86
2023/12/21 03:49:48;;;;;;;0.28;0.28;;;9.30;99.90;;;;;;5022005;28;20033;-87
2023/12/21 03:52:15;;;;;;;0.43;0.43;;;8.00;99.90;;;;;;5022386;28;20113;-88
2023/12/21 03:54:40;;;;;;;0.47;0.38;;;8.20;99.90;;;;;;5019761;28;20014;-86
2023/12/21 03:57:07;;;;;;;0.28;0.20;;;8.10;99.90;;;;;;5014162;28;20065;-85
2023/12/21 03:59:34;;;;;;;0.25;0.25;;;8.10;99.90;;;;;;5021075;28;20042;-86
2023/12/21 04:02:00;;;;;;;1.50;0.40;;;9.80;99.90;;;;;;5027508;28;20030;-86
2023/12/21 04:04:26;;;;;;;0.60;0.45;;;8.10;99.90;;;;;;5012049;28;20026;-83
2023/12/21 04:06:51;;;;;;;0.55;0.40;;;8.10;99.90;;;;;;5012595;28;20030;-84
2023/12/21 04:09:17;;;;;;;1.17;0.32;;;8.10;99.90;;;;;;5025261;28;20026;-86
2023/12/21 04:11:43;;;;;;;0.85;0.47;;;9.70;99.90;;;;;;5007942;28;20039;-85
2023/12/21 04:14:08;;;;;;;0.57;0.40;;;9.10;99.90;;;;;;5009489;28;20018;-85
2023/12/21 04:16:34;;;;;;;0.95;0.40;;;10.30;99.90;;;;;;5026560;28;20034;-87
2023/12/21 04:19:01;;;;;;;0.82;0.50;;;7.90;99.90;;;;;;5009337;28;20034;-88
2023/12/21 04:21:27;;;;;;;1.88;0.52;;;8.00;99.90;;;;;;5016857;28;20030;-84
2023/12/21 04:23:53;;;;;;;0.47;0.47;;;8.10;99.90;;;;;;5020662;28;20052;-86
2023/12/21 04:26:22;;;;;;;0.55;0.40;;;9.10;99.90;;;;;;5007319;28;20030;-83
2023/12/21 04:28:51;;;;;;;0.30;0.30;;;9.60;99.90;;;;;;5008047;28;20029;-84
2023/12/21 04:31:21;;;;;;;0.52;0.40;;;8.70;99.90;;;;;;5044109;28;20026;-86
2023/12/21 04:33:50;;;;;;;0.35;0.30;;;8.20;99.90;;;;;;5046078;28;20077;-87
2023/12/21 04:36:16;;;;;;;0.82;0.40;;;9.40;99.90;;;;;;5042235;28;20072;-86
2023/12/21 04:38:42;;;;;;;2.28;0.40;;;8.20;99.90;;;;;;5043459;28;20025;-85
2023/12/21 04:41:11;;;;;;;0.50;0.40;;;8.20;99.90;;;;;;5038491;28;20049;-85
2023/12/21 04:43:37;;;;;;;1.02;0.40;;;9.00;99.90;;;;;;5041327;28;20036;-88
2023/12/21 04:46:06;;;;;;;0.98;0.50;;;8.60;99.90;;;;;;5057897;28;20032;-89
2023/12/21 04:48:32;;;;;;;1.52;0.60;;;10.60;99.90;;;;;;5038430;28;20029;-85
2023/12/21 04:50:59;;;;;;;1.50;0.70;;;8.20;99.90;;;;;;5052692;28;20025;-85
2023/12/21 04:53:25;;;;;;;1.25;0.70;;;8.20;99.90;;;;;;5059936;28;20047;-85
2023/12/21 04:55:51;;;;;;;1.08;0.70;;;9.40;99.90;;;;;;5042798;28;20155;-86
2023/12/21 04:58:18;;;;;;;0.77;0.60;;;8.20;99.90;;;;;;5043003;28;20025;-87
2023/12/21 05:00:50;;;;;;;2.17;0.50;;;9.90;99.90;;;;;;5043104;28;20037;-85
2023/12/21 05:03:19;;;;;;;2.28;0.70;;;8.20;99.90;;;;;;5042428;28;20028;-81
2023/12/21 05:05:45;;;;;;;0.77;0.50;;;8.20;99.90;;;;;;5046964;28;20398;-85
2023/12/21 05:08:12;;;;;;;0.73;0.40;;;9.20;99.90;;;;;;5043811;28;20055;-86
2023/12/21 05:10:38;;;;;;;0.65;0.50;;;8.90;99.90;;;;;;5059396;28;20024;-84
2023/12/21 05:13:04;;;;;;;0.77;0.50;;;9.60;99.90;;;;;;5039517;28;20407;-83
2023/12/21 05:15:29;;;;;;;0.77;0.50;;;8.20;99.90;;;;;;5040540;28;20081;-85
2023/12/21 05:17:55;;;;;;;1.23;0.60;;;8.90;99.90;;;;;;5059557;28;20017;-85
2023/12/21 05:20:21;;;;;;;2.05;0.60;;;8.20;99.90;;;;;;5042767;28;20022;-85
2023/12/21 05:22:46;;;;;;;1.17;0.60;;;8.20;99.90;;;;;;5039232;28;20040;-88
2023/12/21 05:25:14;;;;;;;1.00;0.68;;;8.10;99.90;;;;;;5043360;28;20048;-86
2023/12/21 05:27:40;;;;;;;0.70;0.60;;;8.20;99.90;;;;;;5042559;28;20056;-86
2023/12/21 05:30:06;;;;;;;2.03;0.70;;;8.20;99.90;;;;;;5043573;28;20037;-87
2023/12/21 05:32:31;;;;;;;1.10;0.60;;;8.20;99.90;;;;;;5058617;28;20089;-87
2023/12/21 05:35:00;;;;;;;0.52;0.50;;;8.20;99.90;;;;;;5027670;28;20033;-87
2023/12/21 05:37:26;;;;;;;4.32;0.73;;;8.20;99.90;;;;;;5043624;28;20371;-85
2023/12/21 05:39:52;;;;;;;0.85;0.60;;;8.10;99.90;;;;;;5044298;28;20072;-83
2023/12/21 05:42:18;;;;;;;1.33;0.60;;;10.00;99.90;;;;;;5051600;28;20038;-84
2023/12/21 05:44:44;;;;;;;2.00;0.80;;;8.30;99.90;;;;;;5041747;28;20053;-84
2023/12/21 05:47:10;;;;;;;1.00;0.40;;;8.20;99.90;;;;;;5043700;28;20129;-86
2023/12/21 05:49:35;;;;;;;0.57;0.50;;;8.40;99.90;;;;;;5047944;28;20693;-87
2023/12/21 05:52:01;;;;;;;2.22;0.65;;;9.10;99.90;;;;;;5047183;28;20037;-88
2023/12/21 05:54:27;;;;;;;0.60;0.50;;;8.40;99.90;;;;;;5043984;28;20122;-88
2023/12/21 05:56:53;;;;;;;0.55;0.50;;;8.30;99.90;;;;;;5038760;28;20092;-86
2023/12/21 05:59:19;;;;;;;1.30;0.40;;;8.30;99.90;;;;;;5033482;28;20470;-87
2023/12/21 06:01:45;;;;;;;1.42;0.55;;;8.50;99.90;;;;;;5044713;28;20022;-85
2023/12/21 06:04:11;;;;;;;2.40;0.70;;;8.30;99.90;;;;;;5047462;28;20029;-84
2023/12/21 06:06:37;;;;;;;1.77;0.60;;;8.40;99.90;;;;;;5042016;28;20026;-86
2023/12/21 06:09:05;;;;;;;2.28;0.50;;;8.40;99.90;;;;;;5025206;28;20033;-85
2023/12/21 06:11:31;;;;;;;0.70;0.50;;;8.90;99.90;;;;;;5042898;28;20030;-88
2023/12/21 06:13:57;;;;;;;0.68;0.60;;;8.40;99.90;;;;;;5041408;28;20100;-87
2023/12/21 06:16:23;;;;;;;1.05;0.77;;;7.70;99.90;;;;;;5045371;28;20048;-86
2023/12/21 06:18:50;;;;;;;0.73;0.50;;;8.40;99.90;;;;;;5047948;28;20141;-82
2023/12/21 06:21:16;;;;;;;1.13;0.60;;;8.80;99.90;;;;;;5048678;28;20430;-89
2023/12/21 06:23:42;;;;;;;0.63;0.50;;;8.40;99.90;;;;;;5036710;28;20049;-89
2023/12/21 06:26:07;;;;;;;0.55;0.40;;;9.50;99.90;;;;;;5040884;28;20044;-87
2023/12/21 06:28:33;;;;;;;0.43;0.40;;;8.40;99.90;;;;;;5052848;28;20409;-87
2023/12/21 06:30:59;;;;;;;0.80;0.47;;;8.30;99.90;;;;;;5032588;28;20033;-89
2023/12/21 06:33:24;;;;;;;0.85;0.40;;;8.30;99.90;;;;;;5040695;28;20026;-88
2023/12/21 06:35:55;;;;;;;0.52;0.50;;;10.10;99.90;;;;;;5041636;28;20030;-82
2023/12/21 06:38:21;;;;;;;0.75;0.47;;;9.10;99.90;;;;;;5036164;28;20026;-83
2023/12/21 06:40:46;;;;;;;0.50;0.50;;;9.60;99.90;;;;;;5049181;28;20080;-89
2023/12/21 06:43:12;;;;;;;0.57;0.40;;;8.30;99.90;;;;;;5031847;28;20032;-86
2023/12/21 06:45:38;;;;;;;1.05;0.60;;;9.00;99.90;;;;;;5036618;28;20031;-87
2023/12/21 06:48:04;;;;;;;0.47;0.45;;;9.70;99.90;;;;;;5030475;28;20026;-86
2023/12/21 06:50:30;;;;;;;0.45;0.35;;;8.40;99.90;;;;;;5030709;28;20025;-84
2023/12/21 06:52:56;;;;;;;0.50;0.40;;;8.60;99.90;;;;;;5026700;28;20052;-88
2023/12/21 06:55:21;;;;;;;1.05;0.40;;;9.40;99.90;;;;;;5049214;28;20031;-84
2023/12/21 06:57:47;;;;;;;0.93;0.57;;;8.50;99.90;;;;;;5027657;28;20029;-86
2023/12/21 07:00:13;;;;;;;0.40;0.40;;;8.50;99.90;;;;;;5022099;28;20040;-84
2023/12/21 07:02:39;;;;;;;2.40;1.05;;;8.50;99.90;;;;;;5025473;28;20098;-84
2023/12/21 07:05:05;;;;;;;0.40;0.40;;;8.50;99.90;;;;;;5021312;28;20112;-87
2023/12/21 07:07:31;;;;;;;0.45;0.40;;;8.40;99.90;;;;;;5035355;28;20484;-84
2023/12/21 07:09:56;;;;;;;0.80;0.50;;;9.20;99.90;;;;;;5028246;28;20037;-87
2023/12/21 07:12:24;;;;;;;0.30;0.30;;;8.40;99.90;;;;;;5027807;28;20029;-81
2023/12/21 07:14:50;;;;;;;0.52;0.38;;;8.50;99.90;;;;;;5023175;28;20176;-84
2023/12/21 07:17:19;;;;;;;0.30;0.30;;;8.30;99.90;;;;;;5024985;28;20080;-86
2023/12/21 07:19:45;;;;;;;0.45;0.45;;;8.40;99.90;;;;;;5032300;28;20089;-85
2023/12/21 07:22:10;;;;;;;0.93;0.50;;;8.40;99.90;;;;;;5024131;28;20426;-85
2023/12/21 07:24:37;;;;;;;1.55;0.50;;;8.50;99.90;;;;;;5027244;28;20037;-83
2023/12/21 07:27:03;;;;;;;1.17;0.50;;;8.50;99.90;;;;;;5027681;28;20488;-85
2023/12/21 07:29:29;;;;;;;1.00;0.70;;;8.60;99.90;;;;;;5048762;28;20040;-88
2023/12/21 07:31:55;;;;;;;0.60;0.50;;;9.20;99.90;;;;;;5029381;28;20524;-83
2023/12/21 07:34:20;;;;;;;1.17;0.95;;;9.80;99.90;;;;;;5044978;28;20044;-83
2023/12/21 07:36:46;;;;;;;0.50;0.50;;;8.50;99.90;;;;;;5031449;28;20029;-83
2023/12/21 07:39:12;;;;;;;1.23;0.40;;;8.50;99.90;;;;;;5031148;28;20070;-85
2023/12/21 07:41:38;;;;;;;0.50;0.50;;;8.50;99.90;;;;;;5034966;28;20036;-86
2023/12/21 07:44:04;;;;;;;0.45;0.40;;;9.20;99.90;;;;;;5037715;28;20588;-85
2023/12/21 07:46:30;;;;;;;0.82;0.50;;;8.50;99.90;;;;;;5035037;28;20026;-85
2023/12/21 07:48:56;;;;;;;0.95;0.50;;;8.50;99.90;;;;;;5048767;28;20037;-87
2023/12/21 07:51:21;;;;;;;0.70;0.45;;;8.50;99.90;;;;;;5031757;28;20029;-89
2023/12/21 07:53:47;;;;;;;0.88;0.57;;;8.50;99.90;;;;;;5038322;28;20108;-82
2023/12/21 07:56:13;;;;;;;0.65;0.50;;;8.10;99.90;;;;;;5033135;28;20030;-86
2023/12/21 07:58:39;;;;;;;0.77;0.47;;;8.60;99.90;;;;;;5034704;28;20032;-88
2023/12/21 08:01:05;;;;;;;1.50;0.55;;;8.60;99.90;;;;;;5049521;28;20029;-85
2023/12/21 08:03:30;;;;;;;0.30;0.30;;;8.50;99.90;;;;;;5035823;28;20021;-86
2023/12/21 08:05:56;;;;;;;0.80;0.45;;;8.50;99.90;;;;;;5049411;28;20080;-88
2023/12/21 08:08:22;;;;;;;1.40;0.68;;;8.50;99.90;;;;;;5049008;28;20128;-88
2023/12/21 08:10:47;;;;;;;0.93;0.52;;;9.20;99.90;;;;;;5031631;28;20034;-82
2023/12/21 08:13:13;;;;;;;0.95;0.50;;;9.20;99.90;;;;;;5046700;28;20040;-83
2023/12/21 08:15:40;;;;;;;0.80;0.60;;;8.50;99.90;;;;;;5034830;28;20030;-84
2023/12/21 08:18:06;;;;;;;1.60;0.60;;;8.50;99.90;;;;;;5034492;28;20032;-84
2023/12/21 08:20:35;;;;;;;1.90;0.60;;;8.40;99.90;;;;;;5025048;28;20075;-87
2023/12/21 08:23:03;;;;;;;1.38;0.60;;;8.40;99.90;;;;;;5033544;28;20650;-85
2023/12/21 08:25:29;;;;;;;0.63;0.60;;;8.50;99.90;;;;;;5033257;28;20226;-84
2023/12/21 08:27:55;;;;;;;0.60;0.50;;;8.90;99.90;;;;;;5034197;28;20026;-86
2023/12/21 08:30:20;;;;;;;1.15;0.70;;;8.60;99.90;;;;;;5026973;28;20043;-84
2023/12/21 08:32:46;;;;;;;1.58;0.80;;;8.50;99.90;;;;;;5029389;28;20033;-83
2023/12/21 08:35:12;;;;;;;3.13;0.90;;;8.50;99.90;;;;;;5043308;28;20030;-86
2023/12/21 08:37:38;;;;;;;1.02;0.60;;;8.50;99.90;;;;;;5032592;28;20516;-87
2023/12/21 08:40:04;;;;;;;1.02;0.52;;;8.70;99.90;;;;;;5047403;28;20025;-82
2023/12/21 08:42:30;;;;;;;0.85;0.50;;;8.50;99.90;;;;;;5027256;28;20047;-84
2023/12/21 08:44:59;;;;;;;0.47;0.40;;;10.40;99.90;;;;;;5033854;28;20029;-86
2023/12/21 08:47:25;;;;;;;0.70;0.47;;;8.60;99.90;;;;;;5033025;28;20025;-89
2023/12/21 08:49:51;;;;;;;0.60;0.40;;;11.10;99.90;;;;;;5031204;28;20386;-86
2023/12/21 08:52:16;;;;;;;0.40;0.40;;;8.80;99.90;;;;;;5030145;28;20144;-83
2023/12/21 08:54:42;;;;;;;0.60;0.50;;;9.40;99.90;;;;;;5032990;28;20025;-84
2023/12/21 08:57:10;;;;;;;0.57;0.43;;;9.00;99.90;;;;;;5030405;28;20029;-85
2023/12/21 08:59:35;;;;;;;0.88;0.40;;;8.80;99.90;;;;;;5032510;28;20030;-86
2023/12/21 09:02:01;;;;;;;0.32;0.32;;;8.90;99.90;;;;;;5046713;28;20375;-83
2023/12/21 09:04:27;;;;;;;0.85;0.43;;;;;;;;;;5032275;28;20087;-85
2023/12/21 09:06:53;;;;;;;1.75;0.50;;;8.90;99.90;;;;;;5040955;28;20034;-83
2023/12/21 09:09:18;;;;;;;0.60;0.40;;;9.10;99.90;;;;;;5025176;28;20025;-86
2023/12/21 09:11:44;;;;;;;1.88;0.43;;;8.90;99.90;;;;;;5027009;28;20037;-85
2023/12/21 09:14:10;;;;;;;1.52;1.27;;;8.90;99.90;;;;;;5039215;28;20105;-80
2023/12/21 09:16:35;;;;;;;2.42;0.60;;;9.80;99.90;;;;;;5024767;28;20029;-83
2023/12/21 09:19:01;;;;;;;0.52;0.40;;;10.40;99.90;;;;;;5029283;28;20389;-87
2023/12/21 09:21:27;;;;;;;1.23;0.50;;;;;;;;;;5024031;28;20041;-82
2023/12/21 09:23:53;;;;;;;0.75;0.40;;;8.90;99.90;;;;;;5032303;28;20025;-90
2023/12/21 09:26:18;;;;;;;1.00;0.40;;;9.60;99.90;;;;;;5043980;28;20036;-87
2023/12/21 09:28:45;;;;;;;2.20;0.65;;;9.00;99.90;;;;;;5028037;28;20116;-82
2023/12/21 09:31:10;;;;;;;1.70;0.65;;;9.00;99.90;;;;;;5009298;28;20030;-83
2023/12/21 09:33:38;;;;;;;0.90;0.55;;;10.70;99.90;;;;;;5015394;28;20467;-87
2023/12/21 09:36:05;;;;;;;0.93;0.60;;;9.90;99.90;;;;;;5009135;28;20034;-79
2023/12/21 09:38:33;;;;;;;0.57;0.50;;;9.10;99.90;;;;;;4990253;28;20030;-83
2023/12/21 09:40:59;;;;;;;0.93;0.60;;;9.20;99.90;;;;;;5001939;28;20077;-87
2023/12/21 09:43:25;;;;;;;0.88;0.40;;;9.10;99.90;;;;;;4997996;28;20030;-84
2023/12/21 09:45:51;;;;;;;0.98;0.70;;;9.20;99.90;;;;;;5024923;28;20029;-84
2023/12/21 09:48:19;;;;;;;0.52;0.40;;;9.30;99.90;;;;;;5007098;28;20026;-84
2023/12/21 09:50:45;;;;;;;0.70;0.50;;;9.60;99.90;;;;;;5024218;28;20497;-86
2023/12/21 09:53:13;;;;;;;2.55;0.88;;;9.20;99.90;;;;;;5020389;28;20026;-84
2023/12/21 09:55:43;;;;;;;1.75;0.70;;;9.30;99.90;;;;;;5000440;28;20029;-83
2023/12/21 09:58:12;;;;;;;0.80;0.50;;;9.20;99.90;;;;;;5003587;28;20026;-87
2023/12/21 10:00:41;;;;;;;0.55;0.40;;;9.20;99.90;;;;;;5004208;28;20026;-84
2023/12/21 10:03:07;;;;;;;0.88;0.60;;;10.40;99.90;;;;;;5015584;28;20032;-83
2023/12/21 10:05:34;;;;;;;0.90;0.60;;;9.80;99.90;;;;;;5009554;28;20027;-86
2023/12/21 10:08:01;;;;;;;0.75;0.45;;;10.00;99.90;;;;;;5013831;28;20077;-86
2023/12/21 10:10:27;;;;;;;2.30;1.05;;;9.20;99.90;;;;;;5013276;28;20027;-86
2023/12/21 10:12:52;;;;;;;2.28;0.70;;;9.30;99.90;;;;;;5001848;28;20029;-84
2023/12/21 10:15:19;;;;;;;1.63;0.95;;;9.50;99.90;;;;;;5016372;28;20109;-87
2023/12/21 10:17:45;;;;;;;0.88;0.45;;;9.30;99.90;;;;;;5012170;28;21255;-83
2023/12/21 10:20:12;;;;;;;0.65;0.50;;;9.20;99.90;;;;;;5014991;28;20030;-85
2023/12/21 10:22:44;;;;;;;1.10;0.70;;;9.30;99.90;;;;;;5020283;28;20108;-86
2023/12/21 10:25:11;;;;;;;1.27;0.70;;;9.30;99.90;;;;;;5026410;28;20035;-82
2023/12/21 10:27:37;;;;;;;0.55;0.40;;;9.30;99.90;;;;;;5000592;28;20037;-83
2023/12/21 10:30:04;;;;;;;1.13;0.50;;;9.40;99.90;;;;;;5020268;28;20051;-87
2023/12/21 10:32:30;;;;;;;0.65;0.52;;;9.40;99.90;;;;;;5041797;28;20033;-82
2023/12/21 10:34:59;;;;;;;1.35;0.65;;;9.40;99.90;;;;;;5034199;28;20049;-81
2023/12/21 10:37:25;;;;;;;2.28;0.60;;;9.40;99.90;;;;;;5051018;28;20478;-82
2023/12/21 10:39:52;;;;;;;0.88;0.40;;;10.50;99.90;;;;;;5033396;28;20030;-84
2023/12/21 10:42:19;;;;;;;2.25;1.00;;;9.40;99.90;;;;;;5037527;28;20033;-84
2023/12/21 10:44:48;;;;;;;0.95;0.60;;;9.40;99.90;;;;;;5042214;28;20527;-84
2023/12/21 10:47:18;;;;;;;1.65;0.77;;;9.60;99.90;;;;;;5043438;28;20041;-85
2023/12/21 10:49:44;;;;;;;0.40;0.30;;;9.40;99.90;;;;;;5022071;28;20025;-87
2023/12/21 10:52:11;;;;;;;2.15;0.63;;;10.40;99.90;;;;;;5039967;28;20074;-81
2023/12/21 10:54:40;;;;;;;1.27;0.60;;;9.50;99.90;;;;;;5058933;28;20045;-83
2023/12/21 10:57:07;;;;;;;2.65;0.77;;;9.50;99.90;;;;;;5057197;28;20026;-86
2023/12/21 10:59:33;;;;;;;1.80;0.70;;;9.60;99.90;;;;;;5043048;28;20113;-83
2023/12/21 11:02:00;;;;;;;2.92;0.75;;;9.40;99.90;;;;;;5050814;28;20344;-86
2023/12/21 11:04:28;;;;;;;1.63;0.70;;;9.50;99.90;;;;;;5032528;28;20033;-87
2023/12/21 11:06:55;;;;;;;2.83;0.63;;;9.50;99.90;;;;;;5034636;28;20036;-87
2023/12/21 11:09:22;;;;;;;0.65;0.52;;;10.20;99.90;;;;;;5053683;28;20021;-85
2023/12/21 11:11:48;;;;;;;0.77;0.57;;;9.80;99.90;;;;;;5039881;28;20989;-84
2023/12/21 11:14:14;;;;;;;0.82;0.50;;;9.50;99.90;;;;;;5041053;28;20025;-86
2023/12/21 11:16:54;;;;;;;2.25;0.80;;;9.60;99.90;;;;;;5055966;28;20385;-82
2023/12/21 11:19:29;;;;;;;1.42;0.82;;;9.60;99.90;;;;;;5042790;28;20025;-85
2023/12/21 11:21:55;;;;;;;1.42;0.55;;;9.70;99.90;;;;;;5037617;28;20029;-82
2023/12/21 11:24:22;;;;;;;0.57;0.40;;;9.50;99.90;;;;;;5056607;28;20501;-86
2023/12/21 11:26:51;;;;;;;2.63;1.02;;;9.50;99.90;;;;;;5039452;28;20029;-82
2023/12/21 11:29:28;;;;;;;1.10;0.68;;;10.70;99.90;;;;;;5030089;28;20118;-84
2023/12/21 11:31:54;;;;;;;0.90;0.50;;;10.70;99.90;;;;;;5054222;28;20034;-83
2023/12/21 11:34:33;;;;;;;4.00;0.52;;;9.60;99.90;;;;;;5037768;28;20073;-84
2023/12/21 11:37:22;;;;;;;0.30;0.30;;;9.60;99.90;;;;;;5041552;28;20021;-86
2023/12/21 16:10:28;;;;;;;2.45;0.90;;;10.70;99.90;;;;;;5053058;28;20049;-86
2023/12/21 16:12:55;;;;;;;4.28;0.90;;;8.60;99.90;;;;;;5057338;28;20133;-86
2023/12/21 16:15:21;;;;;;;2.17;0.90;;;10.60;99.90;;;;;;5057028;28;20041;-90
2023/12/21 16:17:47;;;;;;;2.47;0.93;;;10.60;99.90;;;;;;5041563;28;20025;-90
2023/12/21 16:20:17;;;;;;;3.78;1.00;;;10.70;99.90;;;;;;5058321;28;20135;-90
2023/12/21 16:22:42;;;;;;;3.42;1.10;;;10.60;99.90;;;;;;5026574;28;20029;-87
2023/12/21 16:25:09;;;;;;;3.20;1.20;;;12.40;99.90;;;;;;5042052;28;20040;-89
2023/12/21 16:27:37;;;;;;;2.28;1.00;;;;;;;;;;5041598;28;20084;-89
2023/12/21 16:30:06;;;;;;;2.22;1.20;;;10.70;99.90;;;;;;5057196;28;20016;-88
2023/12/21 16:32:32;;;;;;;3.88;1.00;;;;;;;;;;5058459;28;20152;-87
2023/12/21 19:46:20;;;;;;;4.53;1.50;;;10.40;99.90;;;;;;5024575;28;20062;-83
2023/12/21 19:59:50;;;;;;;3.65;1.17;;;10.20;99.90;;;;;;4982065;28;20133;-85
2023/12/21 20:06:55;;;;;;;3.88;1.20;;;10.20;99.90;;;;;;4966475;28;20204;-86
2023/12/21 20:24:02;;;;;;;4.13;1.50;;;10.10;99.90;;;;;;4742623;30;20141;-85
2023/12/21 20:30:59;;;;;;;6.60;2.00;;;10.00;99.90;;;;;;4729007;30;20086;-83
2023/12/21 20:48:04;;;;;;;3.85;1.40;;;9.90;99.90;;;;;;4814642;29;20114;-86
2023/12/21 20:55:16;;;;;;;8.95;2.22;;;9.90;99.90;;;;;;4785621;30;20108;-84
2023/12/21 21:05:26;;;;;;;8.63;2.05;;;10.00;99.90;;;;;;4817280;29;20057;-88
2023/12/21 21:08:55;;;;;;;6.55;1.90;;;10.00;99.90;;;;;;4789882;29;20087;-84
2023/12/21 21:18:48;;;;;;;8.63;1.75;;;10.00;99.90;;;;;;4873964;29;20052;-88
2023/12/21 22:13:12;;;;;;;10.25;2.42;;;10.00;99.90;;;;;;5010561;28;20045;-86
2023/12/21 22:16:54;;;;;;;7.00;1.73;;;10.00;99.90;;;;;;4986290;28;20087;-86
2023/12/21 23:38:18;;;;;;;6.22;0.88;;;9.80;99.90;;;;;;4921169;22;20028;-89
2023/12/21 23:40:47;;;;;;;3.83;0.88;;;9.70;99.90;;;;;;5040757;28;20041;-90
2023/12/21 23:43:15;;;;;;;4.15;0.75;;;9.70;99.90;;;;;;5047533;28;20025;-89
2023/12/21 23:45:41;;;;;;;3.20;1.00;;;10.60;99.90;;;;;;5034592;28;20038;-90
2023/12/21 23:48:07;;;;;;;3.97;0.85;;;9.40;99.90;;;;;;5035565;28;20085;-89
2023/12/21 23:50:32;;;;;;;3.45;1.10;;;10.60;99.90;;;;;;5045071;28;20021;-92
2023/12/21 23:52:58;;;;;;;2.85;0.70;;;9.30;99.90;;;;;;5032830;28;20025;-88
2023/12/21 23:55:24;;;;;;;5.03;1.20;;;9.90;99.90;;;;;;5045176;28;20009;-90
2023/12/21 23:57:50;;;;;;;3.05;0.90;;;;;;;;;;5050551;28;20013;-90
